Time;durP1;ratioP1;P1;durP2;ratioP2;P2;SDS_P1;SDS_P2;PMS_P1;PMS_P2;Temp;Humidity;BMP_temperature;BMP_pressure;BME280_temperature;BME280_humidity;BME280_pressure;Samples;Min_cycle;Max_cycle;Signal;HPM_P1;HPM_P2
2022/06/25 00:01:08;;;;;;;;;;;21.10;77.20;;;;;;5057501;28;19958;-74
2022/06/25 00:03:34;;;;;;;;;;;21.10;77.30;;;;;;5059922;28;19960;-74
2022/06/25 00:06:00;;;;;;;;;;;21.10;77.00;;;;;;5063840;28;19912;-75
2022/06/25 00:08:25;;;;;;;;;;;21.10;77.40;;;;;;5063737;28;19916;-74
2022/06/25 00:10:52;;;;;;;;;;;21.00;77.50;;;;;;5063854;28;19917;-74
2022/06/25 00:13:18;;;;;;;;;;;21.00;77.30;;;;;;5047465;28;20527;-74
2022/06/25 00:15:43;;;;;;;;;;;21.00;77.50;;;;;;5045194;28;19912;-74
2022/06/25 00:18:09;;;;;;;;;;;20.90;77.20;;;;;;5045664;28;20330;-74
2022/06/25 00:20:35;;;;;;;;;;;21.00;77.40;;;;;;5045389;28;19994;-74
2022/06/25 00:23:00;;;;;;;;;;;20.90;77.40;;;;;;5045607;28;19996;-75
2022/06/25 00:25:26;;;;;;;;;;;20.90;77.10;;;;;;5045514;28;19913;-74
2022/06/25 00:27:51;;;;;;;;;;;20.90;77.60;;;;;;5047486;28;20281;-74
2022/06/25 00:30:17;;;;;;;;;;;20.90;76.80;;;;;;5048872;28;20293;-74
2022/06/25 00:32:44;;;;;;;;;;;20.90;77.00;;;;;;5064094;28;19908;-74
2022/06/25 00:35:09;;;;;;;;;;;20.90;77.20;;;;;;5061996;28;19938;-74
2022/06/25 00:37:35;;;;;;;;;;;20.80;77.30;;;;;;5061441;28;20019;-74
2022/06/25 00:40:00;;;;;;;;;;;20.80;77.50;;;;;;5047724;28;19912;-74
2022/06/25 00:42:26;;;;;;;;;;;20.80;77.20;;;;;;5045067;28;19956;-74
2022/06/25 00:44:55;;;;;;;;;;;20.80;77.50;;;;;;5045942;28;20019;-74
2022/06/25 00:47:21;;;;;;;;;;;20.80;77.30;;;;;;5044212;28;19923;-74
2022/06/25 00:49:47;;;;;;;;;;;20.70;77.70;;;;;;5045004;28;19916;-74
2022/06/25 00:52:13;;;;;;;;;;;20.70;77.60;;;;;;5044398;28;19919;-75
2022/06/25 00:54:42;;;;;;;;;;;20.70;77.50;;;;;;5048578;28;19912;-78
2022/06/25 00:57:08;;;;;;;;;;;20.70;77.60;;;;;;5061338;28;20301;-78
2022/06/25 00:59:40;;;;;;;;;;;20.70;77.60;;;;;;5047059;28;19912;-78
2022/06/25 01:02:06;;;;;;;;;;;20.60;77.50;;;;;;5051184;28;19920;-78
2022/06/25 01:04:31;;;;;;;;;;;20.60;77.50;;;;;;5063865;28;19920;-77
2022/06/25 01:06:57;;;;;;;;;;;20.60;77.70;;;;;;5061532;28;20568;-77
2022/06/25 01:09:22;;;;;;;;;;;20.60;77.90;;;;;;5054113;28;20401;-78
2022/06/25 01:11:48;;;;;;;;;;;20.60;77.80;;;;;;5047600;28;19913;-77
2022/06/25 01:14:14;;;;;;;;;;;20.60;77.70;;;;;;5058450;28;19912;-78
2022/06/25 01:16:39;;;;;;;;;;;20.60;77.60;;;;;;5062934;28;20818;-78
2022/06/25 01:19:06;;;;;;;;;;;20.50;77.80;;;;;;5060793;28;19999;-77
2022/06/25 01:21:32;;;;;;;;;;;20.50;78.00;;;;;;5052544;28;20008;-78
2022/06/25 01:23:57;;;;;;;;;;;20.50;77.40;;;;;;5063722;28;19920;-78
2022/06/25 01:26:23;;;;;;;;;;;20.50;78.00;;;;;;5063100;28;20451;-78
2022/06/25 01:28:48;;;;;;;;;;;20.40;77.90;;;;;;5048782;28;19940;-78
2022/06/25 01:31:14;;;;;;;;;;;20.50;78.00;;;;;;5049074;28;19955;-78
2022/06/25 01:33:39;;;;;;;;;;;20.50;78.00;;;;;;5056290;28;19913;-78
2022/06/25 01:36:05;;;;;;;;;;;20.40;77.90;;;;;;5046130;28;19912;-78
2022/06/25 01:38:30;;;;;;;;;;;20.40;78.00;;;;;;5050999;28;20242;-78
2022/06/25 01:40:56;;;;;;;;;;;20.40;78.00;;;;;;5044639;28;19920;-78
2022/06/25 01:43:21;;;;;;;;;;;20.40;78.00;;;;;;5060629;28;20030;-77
2022/06/25 01:45:47;;;;;;;;;;;20.40;78.30;;;;;;5054549;28;19936;-78
2022/06/25 01:48:12;;;;;;;;;;;20.40;78.10;;;;;;5062967;28;19920;-78
2022/06/25 01:50:38;;;;;;;;;;;20.30;78.10;;;;;;5062655;28;19917;-78
2022/06/25 01:53:04;;;;;;;;;;;20.30;77.90;;;;;;5060509;28;20007;-78
2022/06/25 01:55:29;;;;;;;;;;;20.30;78.20;;;;;;5058878;28;19966;-77
2022/06/25 01:57:55;;;;;;;;;;;20.30;78.20;;;;;;5060347;28;20003;-78
2022/06/25 02:00:25;;;;;;;;;;;20.30;78.30;;;;;;5052359;28;19917;-78
2022/06/25 02:02:52;;;;;;;;;;;20.30;78.40;;;;;;5050140;28;20012;-78
2022/06/25 02:05:56;;;;;;;;;;;20.30;78.50;;;;;;5057678;28;20389;-77
2022/06/25 02:08:05;;;;;;;;;;;20.20;78.30;;;;;;5054871;28;20265;-78
2022/06/25 02:10:30;;;;;;;;;;;20.20;78.20;;;;;;5065292;28;20027;-74
2022/06/25 02:12:55;;;;;;;;;;;20.20;78.40;;;;;;5066152;28;20023;-74
2022/06/25 02:15:21;;;;;;;;;;;20.20;78.50;;;;;;5066103;28;19917;-74
2022/06/25 02:17:46;;;;;;;;;;;20.20;78.60;;;;;;5064203;28;19986;-74
2022/06/25 02:20:12;;;;;;;;;;;20.20;78.50;;;;;;5065969;28;19912;-75
2022/06/25 02:22:37;;;;;;;;;;;20.10;78.40;;;;;;5065698;28;20589;-74
2022/06/25 02:25:03;;;;;;;;;;;20.20;78.70;;;;;;5058434;28;20012;-74
2022/06/25 02:27:29;;;;;;;;;;;20.10;78.70;;;;;;5047159;28;20372;-74
2022/06/25 02:29:54;;;;;;;;;;;20.10;78.40;;;;;;5048069;28;19920;-74
2022/06/25 02:32:19;;;;;;;;;;;20.10;78.50;;;;;;5066072;28;20007;-74
2022/06/25 02:34:45;;;;;;;;;;;20.10;78.70;;;;;;5065949;28;20280;-74
2022/06/25 02:37:11;;;;;;;;;;;20.10;78.40;;;;;;5046656;28;19912;-74
2022/06/25 02:39:36;;;;;;;;;;;20.10;78.70;;;;;;5052873;28;19913;-74
2022/06/25 02:42:02;;;;;;;;;;;20.00;78.80;;;;;;5051284;28;20023;-74
2022/06/25 02:44:27;;;;;;;;;;;20.00;78.70;;;;;;5047188;28;19913;-74
2022/06/25 02:46:53;;;;;;;;;;;20.00;78.80;;;;;;5047027;28;20266;-74
2022/06/25 02:49:18;;;;;;;;;;;20.00;78.70;;;;;;5047261;28;19924;-74
2022/06/25 02:51:44;;;;;;;;;;;20.00;78.60;;;;;;5047217;28;20669;-74
2022/06/25 02:54:10;;;;;;;;;;;20.00;78.80;;;;;;5048928;28;19919;-74
2022/06/25 02:59:19;;;;;;;;;;;19.90;78.90;;;;;;5051409;28;19923;-74
2022/06/25 03:01:45;;;;;;;;;;;19.90;78.80;;;;;;5061354;28;19912;-74
2022/06/25 03:04:11;;;;;;;;;;;19.90;79.20;;;;;;5065546;28;19920;-74
2022/06/25 03:06:36;;;;;;;;;;;19.90;78.90;;;;;;5063283;28;19919;-74
2022/06/25 03:09:02;;;;;;;;;;;19.90;79.00;;;;;;5064569;28;20467;-74
2022/06/25 03:11:27;;;;;;;;;;;19.90;79.20;;;;;;5065325;28;19947;-74
2022/06/25 03:13:53;;;;;;;;;;;19.90;79.20;;;;;;5052366;28;19916;-74
2022/06/25 03:16:18;;;;;;;;;;;19.90;79.00;;;;;;5044225;28;19919;-74
2022/06/25 03:18:44;;;;;;;;;;;19.90;79.10;;;;;;5046449;28;19919;-74
2022/06/25 03:21:09;;;;;;;;;;;19.80;79.10;;;;;;5044960;28;19919;-74
2022/06/25 03:23:35;;;;;;;;;;;19.80;79.10;;;;;;5045247;28;19913;-74
2022/06/25 03:26:01;;;;;;;;;;;19.80;79.30;;;;;;5046091;28;19989;-74
2022/06/25 03:28:26;;;;;;;;;;;19.80;79.20;;;;;;5044797;28;19987;-74
2022/06/25 03:30:52;;;;;;;;;;;19.80;79.40;;;;;;5055589;28;19920;-74
2022/06/25 03:33:17;;;;;;;;;;;19.70;79.30;;;;;;5062523;28;19964;-74
2022/06/25 03:35:43;;;;;;;;;;;19.70;79.40;;;;;;5064208;28;20011;-74
2022/06/25 03:38:08;;;;;;;;;;;19.70;79.40;;;;;;5063602;28;20011;-74
2022/06/25 03:40:34;;;;;;;;;;;19.70;79.30;;;;;;5045490;28;20250;-74
2022/06/25 03:42:59;;;;;;;;;;;19.70;79.30;;;;;;5045340;28;19916;-74
2022/06/25 03:45:25;;;;;;;;;;;19.70;79.50;;;;;;5043784;28;19921;-74
2022/06/25 03:47:51;;;;;;;;;;;19.70;79.60;;;;;;5051712;28;19920;-74
2022/06/25 03:50:20;;;;;;;;;;;19.70;79.50;;;;;;5045362;28;19921;-77
2022/06/25 03:52:46;;;;;;;;;;;19.70;79.40;;;;;;5057358;28;20563;-74
2022/06/25 03:55:11;;;;;;;;;;;19.70;79.60;;;;;;5064344;28;19913;-74
2022/06/25 03:57:37;;;;;;;;;;;19.70;79.50;;;;;;5063220;28;19909;-74
2022/06/25 04:00:03;;;;;;;;;;;19.60;79.50;;;;;;5063026;28;20308;-74
2022/06/25 04:02:29;;;;;;;;;;;19.60;79.60;;;;;;5061314;28;19913;-74
2022/06/25 04:04:54;;;;;;;;;;;19.60;79.60;;;;;;5057946;28;19982;-74
2022/06/25 04:07:20;;;;;;;;;;;19.60;79.60;;;;;;5047709;28;20012;-74
2022/06/25 04:09:45;;;;;;;;;;;19.60;79.70;;;;;;5045560;28;19917;-74
2022/06/25 04:12:11;;;;;;;;;;;19.60;79.60;;;;;;5045749;28;19928;-74
2022/06/25 04:14:37;;;;;;;;;;;19.60;79.50;;;;;;5045334;28;19912;-74
2022/06/25 04:17:03;;;;;;;;;;;19.60;79.40;;;;;;5045360;28;19920;-74
2022/06/25 04:19:29;;;;;;;;;;;19.60;79.60;;;;;;5049541;28;19917;-74
2022/06/25 04:21:54;;;;;;;;;;;19.60;79.70;;;;;;5050978;28;19931;-74
2022/06/25 04:24:20;;;;;;;;;;;19.60;79.70;;;;;;5060176;28;19928;-74
2022/06/25 04:26:45;;;;;;;;;;;19.60;79.70;;;;;;5056937;28;19921;-74
2022/06/25 04:29:11;;;;;;;;;;;19.60;79.50;;;;;;5054284;28;19956;-77
2022/06/25 04:31:37;;;;;;;;;;;19.60;79.40;;;;;;5058966;28;19938;-77
2022/06/25 04:34:03;;;;;;;;;;;19.60;79.40;;;;;;5063187;28;19952;-77
2022/06/25 04:36:28;;;;;;;;;;;19.60;79.50;;;;;;5059864;28;19917;-77
2022/06/25 04:38:54;;;;;;;;;;;19.60;79.60;;;;;;5062121;28;19920;-74
2022/06/25 04:41:20;;;;;;;;;;;19.60;79.30;;;;;;5075482;28;19948;-74
2022/06/25 04:43:45;;;;;;;;;;;19.60;79.40;;;;;;5062189;28;19968;-74
2022/06/25 04:46:11;;;;;;;;;;;19.60;79.40;;;;;;5058400;28;19975;-74
2022/06/25 04:48:36;;;;;;;;;;;19.60;79.40;;;;;;5059416;28;19920;-74
2022/06/25 04:51:02;;;;;;;;;;;19.60;79.30;;;;;;5059421;28;19917;-74
2022/06/25 04:53:28;;;;;;;;;;;19.60;79.40;;;;;;5058519;28;19923;-74
2022/06/25 04:55:53;;;;;;;;;;;19.60;79.40;;;;;;5056629;28;19913;-74
2022/06/25 04:58:19;;;;;;;;;;;19.60;79.80;;;;;;5060068;28;19913;-74
2022/06/25 05:00:44;;;;;;;;;;;19.60;79.30;;;;;;5058554;28;19913;-74
2022/06/25 05:03:10;;;;;;;;;;;19.60;79.10;;;;;;5061436;28;19936;-74
2022/06/25 05:05:36;;;;;;;;;;;19.60;79.30;;;;;;5057065;28;19913;-74
2022/06/25 05:08:01;;;;;;;;;;;19.60;79.30;;;;;;5057766;28;19916;-77
2022/06/25 05:10:27;;;;;;;;;;;19.60;79.00;;;;;;5060905;28;19924;-77
2022/06/25 05:15:37;;;;;;;;;;;19.60;79.20;;;;;;5062006;28;19920;-77
2022/06/25 05:18:03;;;;;;;;;;;19.70;79.20;;;;;;5061205;28;19920;-74
2022/06/25 05:20:29;;;;;;;;;;;19.60;79.10;;;;;;5054106;28;19955;-74
2022/06/25 05:22:54;;;;;;;;;;;19.70;79.10;;;;;;5057623;28;19952;-74
2022/06/25 05:25:20;;;;;;;;;;;19.70;79.10;;;;;;5059404;28;19955;-74
2022/06/25 05:27:45;;;;;;;;;;;19.70;79.00;;;;;;5057499;28;19966;-74
2022/06/25 05:30:11;;;;;;;;;;;19.70;79.00;;;;;;5050400;28;19966;-74
2022/06/25 05:32:36;;;;;;;;;;;19.70;79.00;;;;;;5061990;28;20356;-74
2022/06/25 05:35:02;;;;;;;;;;;19.70;79.10;;;;;;5042575;28;19919;-74
2022/06/25 05:37:28;;;;;;;;;;;19.70;79.00;;;;;;5044195;28;19921;-74
2022/06/25 05:39:53;;;;;;;;;;;19.70;79.10;;;;;;5063120;28;19913;-74
2022/06/25 05:42:20;;;;;;;;;;;19.70;79.00;;;;;;5066792;28;19913;-74
2022/06/25 05:44:46;;;;;;;;;;;19.70;79.00;;;;;;5066625;28;19959;-74
2022/06/25 05:47:11;;;;;;;;;;;19.70;79.00;;;;;;5047989;28;19928;-74
2022/06/25 05:49:37;;;;;;;;;;;19.80;78.90;;;;;;5046328;28;19916;-74
2022/06/25 05:52:02;;;;;;;;;;;19.70;78.80;;;;;;5048597;28;19913;-74
2022/06/25 05:54:28;;;;;;;;;;;19.70;78.80;;;;;;5048032;28;19920;-74
2022/06/25 05:56:53;;;;;;;;;;;19.80;78.90;;;;;;5048024;28;19912;-74
2022/06/25 05:59:19;;;;;;;;;;;19.80;78.80;;;;;;5048451;28;20098;-74
2022/06/25 06:01:44;;;;;;;;;;;19.80;78.90;;;;;;5056048;28;20329;-74
2022/06/25 06:04:10;;;;;;;;;;;19.80;78.80;;;;;;5053290;28;19913;-74
2022/06/25 06:06:35;;;;;;;;;;;19.80;78.80;;;;;;5061418;28;19920;-74
2022/06/25 06:09:01;;;;;;;;;;;19.80;78.70;;;;;;5066991;28;19916;-74
2022/06/25 06:11:26;;;;;;;;;;;19.80;78.50;;;;;;5065946;28;19978;-74
2022/06/25 06:13:52;;;;;;;;;;;19.80;78.70;;;;;;5064682;28;19917;-74
2022/06/25 06:16:17;;;;;;;;;;;19.80;78.50;;;;;;5065316;28;20019;-74
2022/06/25 06:18:43;;;;;;;;;;;19.80;78.40;;;;;;5058090;28;19917;-74
2022/06/25 06:21:08;;;;;;;;;;;19.80;78.50;;;;;;5047275;28;19916;-74
2022/06/25 06:23:34;;;;;;;;;;;19.90;78.50;;;;;;5051839;28;19955;-74
2022/06/25 06:25:59;;;;;;;;;;;19.90;78.50;;;;;;5047642;28;19916;-74
2022/06/25 06:28:25;;;;;;;;;;;19.90;78.50;;;;;;5047172;28;19924;-74
2022/06/25 06:30:50;;;;;;;;;;;19.90;78.50;;;;;;5047137;28;20578;-74
2022/06/25 06:33:17;;;;;;;;;;;19.90;78.60;;;;;;5053637;28;19913;-74
2022/06/25 06:35:43;;;;;;;;;;;19.90;78.40;;;;;;5063915;28;19920;-74
2022/06/25 06:38:08;;;;;;;;;;;19.90;78.30;;;;;;5062374;28;19973;-74
2022/06/25 06:40:34;;;;;;;;;;;19.90;78.20;;;;;;5047271;28;20599;-74
2022/06/25 06:43:00;;;;;;;;;;;20.00;78.20;;;;;;5047614;28;19913;-74
2022/06/25 06:45:26;;;;;;;;;;;20.00;78.30;;;;;;5047046;28;19948;-74
2022/06/25 06:47:52;;;;;;;;;;;20.00;78.10;;;;;;5047048;28;19920;-74
2022/06/25 06:50:17;;;;;;;;;;;20.00;78.00;;;;;;5045465;28;19924;-74
2022/06/25 06:52:43;;;;;;;;;;;20.00;78.00;;;;;;5049957;28;19970;-74
2022/06/25 06:55:08;;;;;;;;;;;20.00;77.90;;;;;;5047022;28;20480;-74
2022/06/25 06:57:37;;;;;;;;;;;20.10;78.10;;;;;;5045209;28;19909;-74
2022/06/25 07:00:04;;;;;;;;;;;20.10;78.10;;;;;;5048449;28;19913;-74
2022/06/25 07:02:30;;;;;;;;;;;20.10;77.90;;;;;;5060810;28;19913;-74
2022/06/25 07:04:56;;;;;;;;;;;20.10;78.60;;;;;;5059353;28;19917;-74
2022/06/25 07:07:21;;;;;;;;;;;20.10;78.10;;;;;;5064856;28;19928;-74
2022/06/25 07:09:47;;;;;;;;;;;20.10;77.90;;;;;;5065033;28;19924;-74
2022/06/25 07:12:12;;;;;;;;;;;20.20;77.70;;;;;;5064895;28;20565;-74
2022/06/25 07:14:38;;;;;;;;;;;20.20;78.00;;;;;;5064891;28;19919;-74
2022/06/25 07:17:03;;;;;;;;;;;20.20;77.70;;;;;;5063002;28;19913;-74
2022/06/25 07:19:29;;;;;;;;;;;20.20;77.70;;;;;;5057471;28;19919;-77
2022/06/25 07:21:54;;;;;;;;;;;20.20;77.70;;;;;;5053263;28;19913;-77
2022/06/25 07:24:20;;;;;;;;;;;20.20;78.10;;;;;;5063123;28;20307;-77
2022/06/25 07:26:46;;;;;;;;;;;20.20;77.60;;;;;;5046232;28;19958;-77
2022/06/25 07:29:11;;;;;;;;;;;20.20;77.30;;;;;;5059040;28;20007;-77
2022/06/25 07:31:37;;;;;;;;;;;20.30;77.50;;;;;;5051539;28;19909;-78
2022/06/25 07:34:02;;;;;;;;;;;20.30;77.40;;;;;;5058228;28;20550;-78
2022/06/25 07:36:28;;;;;;;;;;;20.30;77.30;;;;;;5051066;28;19917;-77
2022/06/25 07:38:54;;;;;;;;;;;20.30;77.20;;;;;;5057844;28;19969;-77
2022/06/25 07:41:20;;;;;;;;;;;20.30;77.60;;;;;;5060922;28;19917;-78
2022/06/25 07:43:46;;;;;;;;;;;20.30;76.90;;;;;;5061231;28;19922;-79
2022/06/25 07:46:12;;;;;;;;;;;20.40;76.90;;;;;;5060827;28;20372;-77
2022/06/25 07:48:38;;;;;;;;;;;20.40;76.70;;;;;;5062090;28;19913;-78
2022/06/25 07:53:48;;;;;;;;;;;20.40;76.60;;;;;;5047445;28;19920;-78
2022/06/25 07:56:13;;;;;;;;;;;20.40;76.50;;;;;;5043958;28;19912;-78
2022/06/25 07:58:39;;;;;;;;;;;20.50;76.50;;;;;;5055284;28;19935;-79
2022/06/25 08:01:04;;;;;;;;;;;20.50;76.40;;;;;;5053121;28;19962;-78
2022/06/25 08:03:30;;;;;;;;;;;20.60;76.40;;;;;;5059996;28;19916;-75
2022/06/25 08:05:56;;;;;;;;;;;20.60;76.20;;;;;;5054524;28;19916;-75
2022/06/25 08:08:22;;;;;;;;;;;20.60;76.30;;;;;;5045413;28;19931;-75
2022/06/25 08:10:47;;;;;;;;;;;20.60;76.20;;;;;;5047320;28;20269;-75
2022/06/25 08:13:13;;;;;;;;;;;20.60;76.10;;;;;;5052075;28;19920;-74
2022/06/25 08:15:38;;;;;;;;;;;20.60;76.30;;;;;;5046242;28;20290;-75
2022/06/25 08:18:04;;;;;;;;;;;20.70;76.20;;;;;;5050106;28;19969;-75
2022/06/25 08:20:29;;;;;;;;;;;20.70;76.00;;;;;;5046724;28;19986;-75
2022/06/25 08:22:55;;;;;;;;;;;20.70;75.90;;;;;;5051004;28;19993;-75
2022/06/25 08:25:20;;;;;;;;;;;20.70;75.70;;;;;;5060723;28;19951;-75
2022/06/25 08:27:50;;;;;;;;;;;20.80;75.70;;;;;;5059513;28;20519;-75
2022/06/25 08:30:16;;;;;;;;;;;20.80;75.60;;;;;;5060513;28;20008;-75
2022/06/25 08:32:42;;;;;;;;;;;20.80;75.50;;;;;;5058864;28;20579;-75
2022/06/25 08:35:08;;;;;;;;;;;20.80;75.80;;;;;;5058316;28;19926;-78
2022/06/25 08:37:42;;;;;;;;;;;20.90;75.50;;;;;;5059654;28;19916;-78
2022/06/25 08:40:08;;;;;;;;;;;20.90;75.40;;;;;;5056256;28;19919;-78
2022/06/25 08:42:34;;;;;;;;;;;20.90;75.40;;;;;;5058835;28;19915;-78
2022/06/25 08:45:00;;;;;;;;;;;20.90;75.20;;;;;;5056575;28;20290;-78
2022/06/25 08:47:26;;;;;;;;;;;21.00;75.30;;;;;;5056724;28;19920;-78
2022/06/25 08:49:52;;;;;;;;;;;20.90;75.30;;;;;;5058861;28;19924;-78
2022/06/25 08:52:21;;;;;;;;;;;21.00;75.10;;;;;;5057641;28;20205;-78
2022/06/25 08:54:46;;;;;;;;;;;21.00;75.20;;;;;;5053501;28;20317;-78
2022/06/25 08:57:12;;;;;;;;;;;21.00;75.20;;;;;;5060046;28;20007;-78
2022/06/25 08:59:38;;;;;;;;;;;21.00;75.00;;;;;;5061027;28;19924;-78
2022/06/25 09:02:04;;;;;;;;;;;21.10;74.90;;;;;;5060574;28;19920;-78
2022/06/25 09:04:30;;;;;;;;;;;21.10;74.80;;;;;;5055067;28;20253;-78
2022/06/25 09:07:11;;;;;;;;;;;21.20;74.60;;;;;;5045971;28;19913;-78
2022/06/25 09:09:37;;;;;;;;;;;21.20;74.50;;;;;;5059610;28;20505;-78
2022/06/25 09:12:05;;;;;;;;;;;21.20;74.60;;;;;;5060435;28;19916;-78
2022/06/25 09:14:32;;;;;;;;;;;21.30;74.70;;;;;;5047397;28;20035;-78
2022/06/25 09:16:58;;;;;;;;;;;21.30;74.80;;;;;;5044067;28;19913;-78
2022/06/25 09:19:33;;;;;;;;;;;21.30;74.70;;;;;;5061834;28;19924;-78
2022/06/25 09:21:59;;;;;;;;;;;21.40;74.60;;;;;;5052571;28;20534;-78
2022/06/25 09:24:40;;;;;;;;;;;21.40;74.50;;;;;;5049699;28;20011;-78
2022/06/25 09:27:05;;;;;;;;;;;21.40;74.40;;;;;;5048815;28;19917;-78
2022/06/25 09:29:42;;;;;;;;;;;21.50;74.20;;;;;;5057242;28;19920;-78
2022/06/25 09:32:08;;;;;;;;;;;21.70;74.10;;;;;;5058848;28;19966;-78
2022/06/25 09:34:35;;;;;;;;;;;21.70;73.80;;;;;;5058832;28;19912;-77
2022/06/25 09:37:19;;;;;;;;;;;21.80;73.60;;;;;;5057851;28;19912;-78
2022/06/25 09:39:48;;;;;;;;;;;21.90;73.40;;;;;;5076392;28;19916;-78
2022/06/25 09:42:21;;;;;;;;;;;21.90;73.40;;;;;;5051742;28;20054;-78
2022/06/25 09:44:47;;;;;;;;;;;21.90;73.30;;;;;;5059503;28;19916;-78
2022/06/25 09:47:13;;;;;;;;;;;21.90;73.30;;;;;;5046818;28;19920;-78
2022/06/25 09:49:39;;;;;;;;;;;21.90;73.40;;;;;;5045074;28;19921;-78
2022/06/25 09:52:05;;;;;;;;;;;22.00;73.30;;;;;;5053046;28;19916;-78
2022/06/25 09:54:31;;;;;;;;;;;22.10;73.10;;;;;;5054058;28;19940;-78
2022/06/25 09:56:57;;;;;;;;;;;22.10;73.20;;;;;;5057632;28;19951;-78
2022/06/25 09:59:23;;;;;;;;;;;22.20;73.00;;;;;;5058759;28;20031;-78
2022/06/25 10:01:49;;;;;;;;;;;22.20;72.80;;;;;;5051258;28;19923;-78
2022/06/25 10:04:14;;;;;;;;;;;22.20;72.80;;;;;;5054814;28;20373;-78
2022/06/25 10:06:40;;;;;;;;;;;22.20;72.90;;;;;;5049170;28;19936;-78
2022/06/25 10:09:07;;;;;;;;;;;22.20;73.00;;;;;;5045649;28;19928;-78
2022/06/25 10:11:34;;;;;;;;;;;22.20;73.10;;;;;;5054520;28;19921;-78
2022/06/25 10:14:00;;;;;;;;;;;22.20;73.00;;;;;;5055186;28;19923;-78
2022/06/25 10:16:26;;;;;;;;;;;22.30;72.90;;;;;;5056481;28;19952;-78
2022/06/25 10:18:52;;;;;;;;;;;22.50;72.40;;;;;;5051780;28;19923;-78
2022/06/25 10:21:18;;;;;;;;;;;22.70;71.80;;;;;;5053396;28;19917;-78
2022/06/25 10:23:45;;;;;;;;;;;22.70;71.60;;;;;;5050660;28;19912;-78
2022/06/25 10:26:11;;;;;;;;;;;22.70;71.60;;;;;;5046936;28;20041;-78
2022/06/25 10:28:36;;;;;;;;;;;22.70;71.60;;;;;;5047280;28;19917;-78
2022/06/25 10:31:06;;;;;;;;;;;22.70;71.70;;;;;;5058041;28;20019;-78
2022/06/25 10:33:36;;;;;;;;;;;22.70;71.90;;;;;;5066241;28;19919;-78
2022/06/25 10:36:05;;;;;;;;;;;22.70;71.90;;;;;;5065044;28;19927;-75
2022/06/25 10:38:31;;;;;;;;;;;22.80;72.00;;;;;;5051084;28;19912;-75
2022/06/25 10:40:56;;;;;;;;;;;22.80;71.90;;;;;;5047536;28;19913;-75
2022/06/25 10:43:35;;;;;;;;;;;22.90;71.80;;;;;;5047385;28;19917;-76
2022/06/25 10:46:21;;;;;;;;;;;22.90;71.70;;;;;;5065215;28;19946;-76
2022/06/25 10:49:07;;;;;;;;;;;22.90;71.80;;;;;;5047377;28;19967;-75
2022/06/25 10:51:33;;;;;;;;;;;22.90;71.90;;;;;;5063873;28;19917;-75
2022/06/25 10:54:00;;;;;;;;;;;22.90;71.80;;;;;;5046951;28;19909;-76
2022/06/25 10:56:25;;;;;;;;;;;23.00;71.80;;;;;;5065391;28;19913;-75
2022/06/25 10:58:52;;;;;;;;;;;23.00;71.80;;;;;;5065550;28;20041;-75
2022/06/25 11:01:19;;;;;;;;;;;23.10;71.70;;;;;;5065574;28;20503;-75
2022/06/25 11:03:44;;;;;;;;;;;23.30;71.40;;;;;;5055555;28;19920;-75
2022/06/25 11:06:24;;;;;;;;;;;23.40;71.00;;;;;;5046845;28;19924;-75
2022/06/25 11:08:50;;;;;;;;;;;23.50;70.70;;;;;;5063776;28;19923;-75
2022/06/25 11:11:27;;;;;;;;;;;23.60;70.50;;;;;;5057959;28;19952;-75
2022/06/25 11:13:53;;;;;;;;;;;23.60;70.60;;;;;;5047384;28;19920;-75
2022/06/25 11:16:19;;;;;;;;;;;23.60;70.70;;;;;;5044928;28;19920;-75
2022/06/25 11:18:45;;;;;;;;;;;23.60;70.60;;;;;;5045777;28;19917;-76
2022/06/25 11:21:22;;;;;;;;;;;23.60;70.70;;;;;;5061423;28;20495;-75
2022/06/25 11:23:48;;;;;;;;;;;23.60;70.70;;;;;;5064835;28;19930;-75
2022/06/25 11:28:57;;;;;;;;;;;23.90;70.40;;;;;;5065219;28;20264;-75
2022/06/25 11:31:23;;;;;;;;;;;24.00;70.00;;;;;;5055468;28;19913;-75
2022/06/25 11:33:50;;;;;;;;;;;24.10;70.10;;;;;;5063103;28;19919;-75
2022/06/25 11:36:16;;;;;;;;;;;24.10;69.80;;;;;;5063354;28;19913;-75
2022/06/25 11:38:42;;;;;;;;;;;24.10;69.80;;;;;;5053420;28;20271;-76
2022/06/25 11:41:18;;;;;;;;;;;24.10;69.80;;;;;;5046891;28;20381;-75
2022/06/25 11:43:43;;;;;;;;;;;24.10;69.90;;;;;;5046350;28;19944;-75
2022/06/25 11:46:09;;;;;;;;;;;24.10;70.00;;;;;;5046039;28;20023;-75
2022/06/25 11:48:34;;;;;;;;;;;24.20;69.90;;;;;;5046017;28;20327;-75
2022/06/25 11:51:00;;;;;;;;;;;24.20;69.90;;;;;;5045525;28;20655;-75
2022/06/25 11:53:26;;;;;;;;;;;24.30;69.70;;;;;;5050130;28;20548;-76
2022/06/25 11:55:55;;;;;;;;;;;24.40;69.70;;;;;;5045316;28;20074;-75
2022/06/25 11:58:20;;;;;;;;;;;24.40;69.70;;;;;;5063053;28;20012;-75
2022/06/25 12:00:46;;;;;;;;;;;24.40;69.50;;;;;;5063115;28;20382;-75
2022/06/25 12:03:11;;;;;;;;;;;24.40;69.60;;;;;;5063044;28;19917;-75
2022/06/25 12:05:37;;;;;;;;;;;24.40;69.70;;;;;;5055297;28;20331;-76
2022/06/25 12:08:03;;;;;;;;;;;24.40;69.70;;;;;;5044342;28;19962;-76
2022/06/25 12:10:29;;;;;;;;;;;24.40;69.60;;;;;;5059711;28;20500;-76
2022/06/25 12:12:54;;;;;;;;;;;24.40;69.70;;;;;;5061423;28;19912;-76
2022/06/25 12:15:27;;;;;;;;;;;24.40;69.80;;;;;;5061305;28;19917;-76
2022/06/25 12:18:01;;;;;;;;;;;24.40;69.80;;;;;;5062418;28;19912;-76
2022/06/25 12:20:26;;;;;;;;;;;24.40;69.90;;;;;;5045625;28;19917;-75
2022/06/25 12:22:52;;;;;;;;;;;24.40;69.90;;;;;;5045709;28;20347;-78
2022/06/25 12:25:23;;;;;;;;;;;24.40;70.00;;;;;;5047537;28;19954;-78
2022/06/25 12:27:50;;;;;;;;;;;24.40;70.00;;;;;;5061601;28;19935;-78
2022/06/25 12:30:32;;;;;;;;;;;24.40;70.10;;;;;;5064112;28;19990;-78
2022/06/25 12:33:04;;;;;;;;;;;24.40;70.20;;;;;;5064010;28;20365;-78
2022/06/25 12:35:33;;;;;;;;;;;24.40;70.30;;;;;;5063641;28;19936;-78
2022/06/25 12:38:00;;;;;;;;;;;24.40;70.40;;;;;;5061211;28;20019;-78
2022/06/25 12:40:25;;;;;;;;;;;24.40;70.60;;;;;;5045747;28;19913;-79
2022/06/25 12:42:55;;;;;;;;;;;24.40;70.60;;;;;;5045411;28;19960;-78
2022/06/25 12:45:20;;;;;;;;;;;24.40;70.40;;;;;;5045345;28;19925;-78
2022/06/25 12:47:46;;;;;;;;;;;24.50;70.30;;;;;;5044883;28;19916;-78
2022/06/25 12:50:30;;;;;;;;;;;24.50;70.20;;;;;;5045452;28;19947;-78
2022/06/25 12:53:07;;;;;;;;;;;24.50;70.00;;;;;;5047988;28;20396;-78
2022/06/25 12:55:32;;;;;;;;;;;24.60;69.90;;;;;;5063687;28;19924;-78
2022/06/25 12:58:05;;;;;;;;;;;24.80;69.50;;;;;;5063079;28;19920;-78
2022/06/25 13:00:32;;;;;;;;;;;25.00;68.90;;;;;;5050878;28;19944;-78
2022/06/25 13:02:57;;;;;;;;;;;25.20;68.50;;;;;;5057092;28;20335;-78
2022/06/25 13:05:23;;;;;;;;;;;25.10;68.50;;;;;;5044927;28;19913;-78
2022/06/25 13:07:49;;;;;;;;;;;25.10;68.70;;;;;;5044326;28;20322;-78
2022/06/25 13:10:15;;;;;;;;;;;25.00;68.60;;;;;;5044966;28;19923;-78
2022/06/25 13:12:42;;;;;;;;;;;25.10;68.80;;;;;;5045784;28;20539;-78
2022/06/25 13:15:08;;;;;;;;;;;25.00;68.80;;;;;;5045009;28;19912;-78
2022/06/25 13:17:33;;;;;;;;;;;25.00;68.80;;;;;;5044721;28;19913;-78
2022/06/25 13:19:59;;;;;;;;;;;25.10;69.10;;;;;;5044881;28;20407;-78
2022/06/25 13:22:25;;;;;;;;;;;25.10;69.00;;;;;;5059804;28;19912;-78
2022/06/25 13:24:50;;;;;;;;;;;25.20;68.90;;;;;;5061525;28;19920;-78
2022/06/25 13:27:16;;;;;;;;;;;25.20;68.80;;;;;;5060157;28;19919;-78
2022/06/25 13:29:44;;;;;;;;;;;25.30;68.70;;;;;;5049723;28;19925;-78
2022/06/25 13:32:10;;;;;;;;;;;25.50;68.40;;;;;;5062446;28;19920;-78
2022/06/25 13:34:35;;;;;;;;;;;25.60;68.00;;;;;;5063011;28;19923;-78
2022/06/25 13:37:01;;;;;;;;;;;25.60;67.40;;;;;;5062596;28;19982;-78
2022/06/25 13:39:26;;;;;;;;;;;25.70;67.40;;;;;;5047955;28;19913;-76
2022/06/25 13:41:52;;;;;;;;;;;25.80;67.50;;;;;;5049174;28;19920;-75
2022/06/25 13:44:18;;;;;;;;;;;25.80;67.40;;;;;;5044628;28;20008;-75
2022/06/25 13:46:44;;;;;;;;;;;25.80;67.30;;;;;;5042582;28;20031;-75
2022/06/25 13:49:10;;;;;;;;;;;25.80;67.30;;;;;;5061291;28;19916;-75
2022/06/25 13:51:36;;;;;;;;;;;25.80;67.50;;;;;;5062767;28;20288;-75
2022/06/25 13:54:01;;;;;;;;;;;25.80;67.60;;;;;;5062661;28;19913;-75
2022/06/25 13:56:27;;;;;;;;;;;25.80;67.70;;;;;;5051124;28;19971;-75
2022/06/25 13:58:52;;;;;;;;;;;25.90;67.50;;;;;;5046616;28;20479;-75
2022/06/25 14:01:18;;;;;;;;;;;25.80;67.90;;;;;;5061084;28;20377;-75
2022/06/25 14:03:43;;;;;;;;;;;25.80;67.80;;;;;;5063656;28;19913;-75
2022/06/25 14:06:09;;;;;;;;;;;25.80;67.90;;;;;;5066585;28;19947;-78
2022/06/25 14:08:35;;;;;;;;;;;25.80;68.00;;;;;;5066046;28;20262;-78
2022/06/25 14:11:01;;;;;;;;;;;25.80;68.00;;;;;;5050712;28;19916;-78
2022/06/25 14:13:27;;;;;;;;;;;25.80;68.00;;;;;;5049901;28;19935;-78
2022/06/25 14:15:52;;;;;;;;;;;25.80;68.10;;;;;;5053343;28;19917;-78
2022/06/25 14:18:19;;;;;;;;;;;25.80;68.00;;;;;;5064796;28;19908;-78
2022/06/25 14:20:45;;;;;;;;;;;25.70;68.00;;;;;;5066203;28;20003;-78
2022/06/25 14:23:10;;;;;;;;;;;25.70;68.00;;;;;;5064004;28;20476;-78